Time;durP1;ratioP1;P1;durP2;ratioP2;P2;SDS_P1;SDS_P2;PMS_P1;PMS_P2;Temp;Humidity;BMP_temperature;BMP_pressure;BME280_temperature;BME280_humidity;BME280_pressure;Samples;Min_cycle;Max_cycle;Signal;HPM_P1;HPM_P2
2022/06/30 00:00:39;;;;;;;8.80;5.63;;;15.40;99.90;;;;;;5053933;28;20492;-67
2022/06/30 00:03:04;;;;;;;7.50;5.90;;;15.30;99.90;;;;;;5054107;28;20033;-67
2022/06/30 00:05:30;;;;;;;9.43;5.72;;;15.30;99.90;;;;;;5054099;28;20075;-67
2022/06/30 00:07:56;;;;;;;10.10;5.95;;;15.20;99.90;;;;;;5036014;28;20071;-67
2022/06/30 00:10:22;;;;;;;9.63;6.40;;;15.10;99.90;;;;;;5053673;28;20039;-67
2022/06/30 00:12:47;;;;;;;11.20;6.70;;;15.10;99.90;;;;;;5054342;28;20087;-67
2022/06/30 00:15:13;;;;;;;16.02;7.25;;;15.00;99.90;;;;;;5053854;28;20428;-67
2022/06/30 00:17:39;;;;;;;9.27;5.82;;;14.90;99.90;;;;;;5053698;28;20025;-67
2022/06/30 00:20:05;;;;;;;10.43;6.78;;;14.90;99.90;;;;;;5053539;28;20033;-67
2022/06/30 00:22:30;;;;;;;9.23;6.80;;;14.80;99.90;;;;;;5053891;28;20070;-69
2022/06/30 00:24:56;;;;;;;6.93;6.18;;;14.70;99.90;;;;;;5053565;28;20029;-67
2022/06/30 00:27:22;;;;;;;9.43;6.60;;;14.60;99.90;;;;;;5053359;28;20021;-68
2022/06/30 00:29:47;;;;;;;10.75;7.35;;;14.60;99.90;;;;;;5053434;28;20036;-67
2022/06/30 00:32:13;;;;;;;13.57;7.50;;;14.60;99.90;;;;;;5053549;28;20028;-68
2022/06/30 00:34:38;;;;;;;11.73;6.78;;;14.60;99.90;;;;;;5053399;28;20032;-67
2022/06/30 00:37:04;;;;;;;8.05;6.68;;;14.50;99.90;;;;;;5035631;28;20029;-67
2022/06/30 00:39:30;;;;;;;8.88;6.93;;;14.40;99.90;;;;;;5053407;28;20083;-68
2022/06/30 00:41:56;;;;;;;7.63;6.40;;;14.40;99.90;;;;;;5053465;28;20025;-68
2022/06/30 00:44:22;;;;;;;11.32;6.38;;;14.30;99.90;;;;;;5053072;28;20029;-68
2022/06/30 00:46:48;;;;;;;8.32;6.10;;;14.30;99.90;;;;;;5053119;28;20033;-68
2022/06/30 00:49:15;;;;;;;9.32;5.82;;;14.30;99.90;;;;;;5053204;28;20025;-68
2022/06/30 00:51:41;;;;;;;8.30;5.70;;;14.30;99.90;;;;;;5053354;28;20033;-68
2022/06/30 00:54:07;;;;;;;10.00;6.45;;;14.30;99.90;;;;;;5053858;28;20116;-70
2022/06/30 00:56:40;;;;;;;12.00;8.18;;;14.30;99.90;;;;;;5053850;28;20017;-70
2022/06/30 00:59:07;;;;;;;14.30;8.15;;;14.20;99.90;;;;;;5053296;28;20033;-69
2022/06/30 01:01:33;;;;;;;15.50;7.82;;;14.20;99.90;;;;;;5053693;28;20108;-70
2022/06/30 01:04:00;;;;;;;9.73;7.97;;;14.20;99.90;;;;;;5053533;28;20036;-70
2022/06/30 01:06:27;;;;;;;11.30;7.93;;;14.20;99.90;;;;;;5053375;28;20025;-69
2022/06/30 01:08:53;;;;;;;8.13;6.90;;;14.10;99.90;;;;;;5054744;28;20103;-69
2022/06/30 01:14:03;;;;;;;10.38;7.88;;;14.00;99.90;;;;;;5053513;28;20070;-69
2022/06/30 01:16:29;;;;;;;10.25;7.25;;;14.00;99.90;;;;;;5053389;28;20107;-70
2022/06/30 01:18:55;;;;;;;9.02;6.70;;;13.90;99.90;;;;;;5053351;28;20160;-70
2022/06/30 01:21:21;;;;;;;6.82;6.15;;;13.90;99.90;;;;;;5053116;28;20489;-70
2022/06/30 01:23:46;;;;;;;7.28;6.25;;;13.90;99.90;;;;;;5052987;28;20021;-70
2022/06/30 01:26:12;;;;;;;6.97;6.22;;;13.90;99.90;;;;;;5053484;28;20104;-70
2022/06/30 01:28:38;;;;;;;13.20;7.53;;;13.90;99.90;;;;;;5053110;28;20110;-70
2022/06/30 01:31:03;;;;;;;8.43;6.55;;;13.90;99.90;;;;;;5053497;28;20025;-70
2022/06/30 01:33:29;;;;;;;10.02;7.00;;;13.90;99.90;;;;;;5052979;28;20021;-70
2022/06/30 01:35:56;;;;;;;10.10;7.90;;;13.90;99.90;;;;;;5053084;28;20023;-70
2022/06/30 01:38:22;;;;;;;9.05;7.63;;;13.90;99.90;;;;;;5053066;28;20022;-69
2022/06/30 01:40:48;;;;;;;13.13;8.15;;;13.90;99.90;;;;;;5056701;28;20079;-69
2022/06/30 01:43:13;;;;;;;17.33;8.27;;;13.90;99.90;;;;;;5056666;28;20025;-70
2022/06/30 01:45:40;;;;;;;17.58;8.63;;;14.00;99.90;;;;;;5056742;28;20032;-69
2022/06/30 01:48:07;;;;;;;12.93;8.63;;;14.10;99.90;;;;;;5056549;28;20025;-69
2022/06/30 01:50:32;;;;;;;14.60;8.75;;;14.10;99.90;;;;;;5056502;28;20025;-69
2022/06/30 01:52:59;;;;;;;13.05;8.45;;;14.20;99.90;;;;;;5056343;28;20025;-69
2022/06/30 01:55:25;;;;;;;17.80;7.93;;;14.20;99.90;;;;;;5056258;28;20029;-69
2022/06/30 01:57:51;;;;;;;9.75;7.50;;;14.20;99.90;;;;;;5056256;28;20028;-69
2022/06/30 02:00:19;;;;;;;10.13;8.13;;;14.20;99.90;;;;;;5056478;28;20496;-70
2022/06/30 02:02:46;;;;;;;14.90;7.90;;;14.20;99.90;;;;;;5056264;28;20041;-70
2022/06/30 02:05:12;;;;;;;9.65;6.93;;;14.20;99.90;;;;;;5056103;28;20033;-69
2022/06/30 02:07:39;;;;;;;15.57;8.13;;;14.20;99.90;;;;;;5056302;28;20036;-70
2022/06/30 02:10:14;;;;;;;11.40;8.57;;;14.10;99.90;;;;;;5055873;28;20021;-70
2022/06/30 02:12:46;;;;;;;11.57;9.15;;;14.10;99.90;;;;;;5056482;28;20021;-70
2022/06/30 02:15:18;;;;;;;12.02;7.82;;;14.10;99.90;;;;;;5056114;28;20017;-70
2022/06/30 02:17:46;;;;;;;12.07;9.23;;;14.10;99.90;;;;;;5038256;28;20433;-70
2022/06/30 02:20:13;;;;;;;11.30;8.15;;;14.10;99.90;;;;;;5055970;28;20021;-69
2022/06/30 02:22:41;;;;;;;13.82;9.05;;;14.10;99.90;;;;;;5056227;28;20029;-69
2022/06/30 02:25:08;;;;;;;16.08;9.45;;;14.00;99.90;;;;;;5055646;28;20017;-69
2022/06/30 02:27:34;;;;;;;11.10;8.65;;;14.00;99.90;;;;;;5055610;28;20035;-69
2022/06/30 02:30:00;;;;;;;11.75;9.13;;;14.00;99.90;;;;;;5055323;28;20029;-69
2022/06/30 02:32:26;;;;;;;18.70;9.80;;;14.00;99.90;;;;;;5053053;28;20025;-69
2022/06/30 02:34:52;;;;;;;14.05;9.80;;;13.90;99.90;;;;;;5055678;28;20035;-70
2022/06/30 02:37:19;;;;;;;13.07;9.18;;;13.80;99.90;;;;;;5054665;28;20025;-70
2022/06/30 02:39:45;;;;;;;14.25;8.52;;;13.80;99.90;;;;;;5055648;28;20079;-69
2022/06/30 02:42:10;;;;;;;14.95;10.35;;;13.70;99.90;;;;;;5055542;28;20571;-70
2022/06/30 02:44:36;;;;;;;13.30;10.13;;;13.70;99.90;;;;;;5055318;28;20065;-69
2022/06/30 02:47:03;;;;;;;18.13;10.00;;;13.60;99.90;;;;;;5055747;28;20053;-69
2022/06/30 02:49:29;;;;;;;18.08;11.05;;;13.60;99.90;;;;;;5055190;28;20033;-69
2022/06/30 02:51:54;;;;;;;13.00;11.07;;;13.60;99.90;;;;;;5055401;28;20032;-70
2022/06/30 02:54:20;;;;;;;17.52;12.00;;;13.60;99.90;;;;;;5054990;28;20079;-70
2022/06/30 02:56:47;;;;;;;18.30;12.88;;;13.60;99.90;;;;;;5055329;28;20025;-70
2022/06/30 02:59:13;;;;;;;15.20;11.80;;;13.60;99.90;;;;;;5055312;28;20024;-70
2022/06/30 03:01:39;;;;;;;17.08;13.27;;;13.60;99.90;;;;;;5055418;28;20112;-70
2022/06/30 03:04:05;;;;;;;24.00;12.63;;;13.60;99.90;;;;;;5055100;28;20114;-69
2022/06/30 03:06:32;;;;;;;19.17;13.70;;;13.60;99.90;;;;;;5055071;28;20449;-69
2022/06/30 03:08:58;;;;;;;20.27;13.77;;;13.60;99.90;;;;;;5055102;28;20067;-69
2022/06/30 03:11:24;;;;;;;16.50;12.82;;;13.60;99.90;;;;;;5054941;28;20041;-69
2022/06/30 03:13:50;;;;;;;16.60;12.48;;;13.60;99.90;;;;;;5054917;28;20091;-70
2022/06/30 03:16:17;;;;;;;15.15;11.90;;;13.60;99.90;;;;;;5054664;28;20031;-69
2022/06/30 03:18:43;;;;;;;18.10;12.88;;;13.60;99.90;;;;;;5054833;28;20021;-69
2022/06/30 03:21:08;;;;;;;14.35;12.40;;;13.60;99.90;;;;;;5054923;28;20036;-70
2022/06/30 03:23:34;;;;;;;16.50;12.95;;;13.60;99.90;;;;;;5054545;28;20031;-69
2022/06/30 03:26:00;;;;;;;17.45;13.90;;;13.60;99.90;;;;;;5054833;28;20037;-69
2022/06/30 03:28:25;;;;;;;15.73;12.95;;;13.60;99.90;;;;;;5054973;28;20419;-68
2022/06/30 03:30:51;;;;;;;16.30;11.70;;;13.60;99.90;;;;;;5056474;28;20029;-69
2022/06/30 03:33:17;;;;;;;14.23;11.52;;;13.60;99.90;;;;;;5056322;28;20049;-70
2022/06/30 03:35:44;;;;;;;18.05;12.77;;;13.60;99.90;;;;;;5054464;28;20040;-70
2022/06/30 03:38:10;;;;;;;17.73;11.10;;;13.60;99.90;;;;;;5054535;28;20100;-70
2022/06/30 03:40:35;;;;;;;12.13;10.55;;;13.60;99.90;;;;;;5054398;28;20583;-69
2022/06/30 03:43:01;;;;;;;14.68;11.18;;;13.60;99.90;;;;;;5054375;28;20492;-70
2022/06/30 03:45:27;;;;;;;13.18;11.80;;;13.80;99.90;;;;;;5054278;28;20036;-70
2022/06/30 03:47:53;;;;;;;15.68;13.43;;;13.70;99.90;;;;;;5054544;28;20469;-70
2022/06/30 03:50:19;;;;;;;17.33;12.63;;;13.70;99.90;;;;;;5054462;28;20041;-70
2022/06/30 03:52:45;;;;;;;17.20;13.35;;;13.80;99.90;;;;;;5054378;28;20036;-70
2022/06/30 03:55:11;;;;;;;16.65;13.43;;;13.90;99.90;;;;;;5053978;28;20507;-70
2022/06/30 03:57:37;;;;;;;15.35;12.95;;;13.90;99.90;;;;;;5054461;28;20495;-70
2022/06/30 04:00:04;;;;;;;19.27;11.75;;;14.00;99.90;;;;;;5054368;28;20107;-70
2022/06/30 04:02:29;;;;;;;17.23;12.80;;;14.00;99.90;;;;;;5053889;28;20032;-70
2022/06/30 04:04:55;;;;;;;15.52;13.07;;;14.10;99.90;;;;;;5053842;28;20017;-69
2022/06/30 04:07:21;;;;;;;20.48;12.60;;;14.10;99.90;;;;;;5054402;28;20025;-70
2022/06/30 04:09:46;;;;;;;22.20;12.77;;;14.20;99.90;;;;;;5036067;28;20119;-70
2022/06/30 04:12:12;;;;;;;15.93;12.23;;;14.20;99.90;;;;;;5053817;28;20095;-69
2022/06/30 04:14:37;;;;;;;18.08;12.02;;;14.30;99.90;;;;;;5053951;28;20048;-70
2022/06/30 04:17:03;;;;;;;14.73;12.02;;;14.40;99.90;;;;;;5053811;28;20017;-69
2022/06/30 04:19:30;;;;;;;15.90;11.25;;;14.40;99.90;;;;;;5053813;28;20029;-70
2022/06/30 04:21:56;;;;;;;16.48;12.25;;;14.50;99.90;;;;;;5053924;28;20493;-70
2022/06/30 04:24:21;;;;;;;21.98;13.13;;;14.60;99.90;;;;;;5053899;28;20036;-70
2022/06/30 04:26:47;;;;;;;20.73;12.10;;;14.70;99.90;;;;;;5053721;28;20503;-69
2022/06/30 04:29:12;;;;;;;24.50;11.93;;;14.70;99.90;;;;;;5053952;28;20428;-70
2022/06/30 04:34:22;;;;;;;19.40;12.20;;;14.90;99.90;;;;;;5053855;28;20392;-70
2022/06/30 04:36:48;;;;;;;22.10;15.07;;;15.00;99.90;;;;;;5053923;28;20025;-70
2022/06/30 04:39:13;;;;;;;21.35;15.65;;;15.20;99.90;;;;;;5053547;28;20036;-70
2022/06/30 04:41:39;;;;;;;17.40;11.48;;;15.30;99.90;;;;;;5053555;28;20021;-70
2022/06/30 04:44:07;;;;;;;17.33;13.15;;;15.40;99.90;;;;;;5053765;28;20424;-70
2022/06/30 04:46:33;;;;;;;18.10;12.43;;;15.50;99.90;;;;;;5053497;28;20033;-69
2022/06/30 04:48:59;;;;;;;23.17;14.38;;;15.60;99.90;;;;;;5053155;28;20021;-69
2022/06/30 04:51:24;;;;;;;26.25;14.82;;;15.80;99.90;;;;;;5053505;28;20534;-70
2022/06/30 04:53:51;;;;;;;17.58;12.95;;;15.80;99.90;;;;;;5053364;28;20087;-70
2022/06/30 04:56:17;;;;;;;17.92;12.95;;;16.00;99.90;;;;;;5053274;28;20017;-69
2022/06/30 04:58:43;;;;;;;25.67;15.40;;;16.10;99.90;;;;;;5053715;28;20024;-70
2022/06/30 05:01:10;;;;;;;32.17;14.25;;;16.20;99.90;;;;;;5053416;28;20029;-69
2022/06/30 05:03:36;;;;;;;23.73;16.77;;;16.30;99.90;;;;;;5053940;28;20032;-69
2022/06/30 05:06:03;;;;;;;31.55;17.83;;;16.40;99.90;;;;;;5053269;28;20079;-70
2022/06/30 05:08:28;;;;;;;23.20;15.38;;;16.50;99.90;;;;;;5053353;28;20021;-70
2022/06/30 05:10:54;;;;;;;31.23;16.08;;;16.60;99.90;;;;;;5053280;28;20072;-70
2022/06/30 05:13:19;;;;;;;36.38;17.13;;;16.70;99.90;;;;;;5053434;28;20448;-70
2022/06/30 05:15:45;;;;;;;25.95;18.45;;;16.80;99.90;;;;;;5057323;28;20052;-70
2022/06/30 05:18:11;;;;;;;25.33;14.00;;;16.90;99.90;;;;;;5056994;28;20104;-70
2022/06/30 05:20:37;;;;;;;18.05;15.43;;;17.00;99.90;;;;;;5057445;28;20492;-70
2022/06/30 05:23:03;;;;;;;29.73;15.20;;;17.10;99.90;;;;;;5057050;28;20029;-69
2022/06/30 05:28:13;;;;;;;26.10;15.77;;;17.40;99.90;;;;;;5057599;28;20083;-70
2022/06/30 05:30:41;;;;;;;20.95;15.70;;;17.40;99.90;;;;;;5056886;28;20083;-69
2022/06/30 05:33:07;;;;;;;23.52;15.23;;;17.60;99.90;;;;;;5056930;28;20024;-70
2022/06/30 05:35:32;;;;;;;22.48;16.20;;;17.70;99.90;;;;;;5057147;28;20377;-69
2022/06/30 05:37:58;;;;;;;34.60;14.05;;;17.80;99.90;;;;;;5057072;28;20494;-70
2022/06/30 05:40:23;;;;;;;28.42;19.08;;;17.80;99.90;;;;;;5056869;28;20032;-69
2022/06/30 05:42:49;;;;;;;19.80;14.27;;;17.90;99.90;;;;;;5056902;28;20503;-70
2022/06/30 05:45:14;;;;;;;18.80;13.55;;;17.90;99.90;;;;;;5056931;28;20112;-70
2022/06/30 05:47:52;;;;;;;23.77;14.00;;;18.00;99.90;;;;;;5057119;28;20354;-69
2022/06/30 05:50:20;;;;;;;18.27;11.45;;;18.10;99.90;;;;;;5056649;28;20051;-70
2022/06/30 05:52:46;;;;;;;18.40;8.70;;;18.20;99.90;;;;;;5058399;28;20036;-70
2022/06/30 05:55:12;;;;;;;16.58;9.30;;;18.30;99.90;;;;;;5059390;28;20410;-69
2022/06/30 05:57:50;;;;;;;20.10;9.30;;;18.40;99.90;;;;;;5056801;28;20490;-70
2022/06/30 06:00:16;;;;;;;20.10;9.05;;;18.60;99.90;;;;;;5056991;28;20032;-70
2022/06/30 06:02:41;;;;;;;14.43;7.97;;;18.70;99.90;;;;;;5056362;28;20033;-70
2022/06/30 06:05:07;;;;;;;16.88;7.45;;;18.80;99.90;;;;;;5056860;28;20028;-70
2022/06/30 06:07:32;;;;;;;8.30;5.93;;;18.90;99.90;;;;;;5056293;28;20025;-70
2022/06/30 06:09:58;;;;;;;13.93;7.65;;;19.10;99.90;;;;;;5056401;28;20116;-70
2022/06/30 06:12:24;;;;;;;16.85;7.10;;;19.20;99.90;;;;;;5056142;28;20021;-70
2022/06/30 06:14:49;;;;;;;15.63;5.97;;;19.40;99.90;;;;;;5056222;28;20070;-70
2022/06/30 06:17:15;;;;;;;14.43;5.63;;;19.50;99.90;;;;;;5056165;28;20104;-68
2022/06/30 06:19:41;;;;;;;11.80;5.18;;;19.60;99.90;;;;;;5056278;28;20048;-70
2022/06/30 06:22:07;;;;;;;12.60;5.47;;;19.70;99.90;;;;;;5056185;28;20032;-69
2022/06/30 06:24:32;;;;;;;9.98;4.35;;;19.80;99.90;;;;;;5055188;28;20028;-69
2022/06/30 06:26:58;;;;;;;6.70;4.03;;;20.00;99.90;;;;;;5055808;28;20566;-69
2022/06/30 06:29:23;;;;;;;12.75;5.03;;;20.20;99.90;;;;;;5055633;28;20035;-69
2022/06/30 06:31:49;;;;;;;14.23;4.13;;;20.40;99.90;;;;;;5055721;28;20067;-69
2022/06/30 06:34:15;;;;;;;7.18;3.97;;;20.50;99.90;;;;;;5055784;28;20075;-69
2022/06/30 06:36:40;;;;;;;15.32;4.80;;;20.60;99.90;;;;;;5055591;28;20469;-69
2022/06/30 06:39:06;;;;;;;7.35;3.85;;;20.70;99.90;;;;;;5056017;28;20044;-69
2022/06/30 06:41:32;;;;;;;12.23;3.90;;;20.80;99.90;;;;;;5055690;28;20017;-69
2022/06/30 06:43:58;;;;;;;11.40;4.03;;;21.00;99.90;;;;;;5055496;28;20099;-70
2022/06/30 06:46:32;;;;;;;10.18;4.60;;;21.10;99.90;;;;;;5055534;28;20029;-71
2022/06/30 06:49:03;;;;;;;10.23;4.28;;;21.30;99.90;;;;;;5055628;28;20540;-70
2022/06/30 06:51:29;;;;;;;11.55;3.90;;;21.50;99.90;;;;;;5055990;28;20060;-70
2022/06/30 06:53:55;;;;;;;12.40;4.10;;;21.60;99.90;;;;;;5055880;28;20064;-70
2022/06/30 06:56:21;;;;;;;7.03;3.70;;;21.70;99.90;;;;;;5057556;28;20025;-69
2022/06/30 06:58:47;;;;;;;8.40;3.60;;;21.70;99.90;;;;;;5057246;28;20029;-69
2022/06/30 07:01:13;;;;;;;6.88;3.55;;;21.90;99.90;;;;;;5057267;28;20040;-68
2022/06/30 07:03:38;;;;;;;12.95;3.55;;;21.90;99.90;;;;;;5057319;28;20025;-68
2022/06/30 07:06:05;;;;;;;10.68;3.42;;;21.90;99.90;;;;;;5056961;28;20031;-69
2022/06/30 07:08:31;;;;;;;9.73;3.08;;;22.00;99.90;;;;;;5056538;28;20025;-68
2022/06/30 07:10:57;;;;;;;6.65;2.88;;;22.10;99.90;;;;;;5055396;28;20040;-68
2022/06/30 07:13:27;;;;;;;10.80;3.25;;;22.10;99.90;;;;;;5055086;28;20039;-67
2022/06/30 07:15:53;;;;;;;5.25;2.92;;;22.20;99.90;;;;;;5055192;28;20021;-67
2022/06/30 07:18:19;;;;;;;6.93;3.25;;;22.40;99.90;;;;;;5054789;28;20036;-67
2022/06/30 07:20:44;;;;;;;5.22;2.60;;;22.60;99.90;;;;;;5055386;28;20021;-67
2022/06/30 07:23:10;;;;;;;7.65;2.45;;;22.80;99.90;;;;;;5055581;28;20032;-69
2022/06/30 07:25:36;;;;;;;7.07;3.47;;;22.90;99.90;;;;;;5055017;28;20025;-68
2022/06/30 07:28:02;;;;;;;5.97;2.75;;;22.90;99.90;;;;;;5054827;28;20033;-69
2022/06/30 07:30:28;;;;;;;5.72;2.85;;;22.90;99.90;;;;;;5055059;28;20032;-68
2022/06/30 07:32:54;;;;;;;7.05;3.10;;;23.10;99.90;;;;;;5055296;28;20032;-68
2022/06/30 07:35:21;;;;;;;7.15;2.35;;;23.20;99.90;;;;;;5054928;28;20041;-68
2022/06/30 07:37:46;;;;;;;7.97;2.50;;;23.30;99.90;;;;;;5054101;28;20079;-68
2022/06/30 07:40:13;;;;;;;7.53;2.67;;;23.50;99.90;;;;;;5054931;28;20025;-69
2022/06/30 07:42:39;;;;;;;9.05;2.90;;;23.60;99.90;;;;;;5055576;28;20017;-67
2022/06/30 07:45:06;;;;;;;8.27;2.65;;;23.80;99.90;;;;;;5055063;28;20024;-67
2022/06/30 07:47:32;;;;;;;6.70;3.00;;;24.00;99.90;;;;;;5036853;28;20024;-67
2022/06/30 07:49:58;;;;;;;5.63;2.65;;;24.00;99.90;;;;;;5055083;28;20471;-67
2022/06/30 07:52:24;;;;;;;7.35;2.67;;;24.20;99.90;;;;;;5054418;28;20074;-66
2022/06/30 07:54:51;;;;;;;7.63;2.22;;;24.20;99.90;;;;;;5054696;28;20400;-67
2022/06/30 07:57:17;;;;;;;11.65;2.70;;;24.40;99.90;;;;;;5054689;28;20017;-66
2022/06/30 07:59:43;;;;;;;7.65;2.78;;;24.40;99.90;;;;;;5055414;28;20546;-66
2022/06/30 08:02:08;;;;;;;10.02;3.05;;;24.50;99.90;;;;;;5055293;28;20056;-67
2022/06/30 08:04:35;;;;;;;23.42;2.55;;;24.60;99.90;;;;;;5055052;28;20521;-67
2022/06/30 08:07:01;;;;;;;5.40;2.40;;;24.70;99.90;;;;;;5055332;28;20461;-67
2022/06/30 08:09:27;;;;;;;6.88;2.72;;;24.70;99.90;;;;;;5055019;28;20112;-67
2022/06/30 08:11:54;;;;;;;7.63;2.30;;;24.90;99.90;;;;;;5054613;28;20096;-67
2022/06/30 08:14:21;;;;;;;9.20;3.00;;;24.90;99.90;;;;;;5055043;28;20025;-67
2022/06/30 08:16:46;;;;;;;5.18;2.70;;;25.00;99.90;;;;;;5056161;28;20102;-67
2022/06/30 08:19:12;;;;;;;11.55;2.88;;;25.10;99.90;;;;;;5052346;28;20053;-67
2022/06/30 08:21:37;;;;;;;10.20;2.85;;;25.00;99.90;;;;;;5034198;28;20125;-67
2022/06/30 08:24:03;;;;;;;8.73;3.15;;;25.10;99.90;;;;;;5034539;28;20541;-67
2022/06/30 08:26:30;;;;;;;6.22;2.42;;;25.10;99.90;;;;;;5051837;28;20017;-67
2022/06/30 08:28:56;;;;;;;7.72;3.17;;;25.20;99.90;;;;;;5054278;28;20060;-67
2022/06/30 08:31:22;;;;;;;7.45;2.53;;;25.20;99.90;;;;;;5054294;28;20049;-67
2022/06/30 08:33:50;;;;;;;4.18;2.00;;;25.30;99.90;;;;;;5054045;28;20354;-67
2022/06/30 08:36:18;;;;;;;7.65;2.25;;;25.50;99.90;;;;;;5054055;28;20051;-67
2022/06/30 08:38:44;;;;;;;8.15;2.45;;;25.40;99.90;;;;;;5053777;28;20022;-67
2022/06/30 08:43:56;;;;;;;7.85;2.55;;;25.30;99.90;;;;;;5054323;28;20171;-67
2022/06/30 08:46:23;;;;;;;6.22;2.08;;;25.40;99.90;;;;;;5053994;28;20021;-67
2022/06/30 08:48:49;;;;;;;6.10;2.28;;;25.60;99.90;;;;;;5056384;28;20150;-67
2022/06/30 08:51:16;;;;;;;10.82;2.45;;;25.60;99.90;;;;;;5058534;28;20049;-67
2022/06/30 08:54:01;;;;;;;7.75;2.60;;;25.80;99.90;;;;;;5057726;28;20017;-67
2022/06/30 08:56:34;;;;;;;4.60;1.98;;;25.90;99.90;;;;;;5058111;28;20033;-67
2022/06/30 08:59:01;;;;;;;;;;;26.00;99.90;;;;;;5058530;28;20376;-67
2022/06/30 09:01:27;;;;;;;7.68;2.35;;;26.10;99.90;;;;;;5057758;28;19971;-67
2022/06/30 09:03:53;;;;;;;3.75;1.58;;;26.40;99.90;;;;;;5057678;28;20036;-67
2022/06/30 09:06:19;;;;;;;7.28;2.40;;;26.60;99.90;;;;;;5057580;28;20040;-67
2022/06/30 09:08:44;;;;;;;7.45;1.92;;;26.60;99.90;;;;;;5057592;28;20033;-67
2022/06/30 09:11:10;;;;;;;6.43;2.25;;;26.60;99.90;;;;;;5057522;28;20474;-67
2022/06/30 09:13:44;;;;;;;7.25;2.10;;;26.70;99.90;;;;;;5057779;28;20013;-67
2022/06/30 09:16:11;;;;;;;7.93;2.22;;;26.70;99.90;;;;;;5057702;28;20021;-67
2022/06/30 09:18:36;;;;;;;10.00;2.35;;;26.80;99.90;;;;;;5057573;28;20023;-67
2022/06/30 09:21:16;;;;;;;11.27;2.05;;;26.90;99.90;;;;;;5057477;28;20025;-67
2022/06/30 09:23:47;;;;;;;6.50;1.92;;;26.90;99.90;;;;;;5057251;28;20025;-67
2022/06/30 09:26:18;;;;;;;6.45;1.92;;;27.00;99.90;;;;;;5058162;28;20032;-67
2022/06/30 09:28:55;;;;;;;10.25;2.20;;;27.20;99.90;;;;;;5057581;28;20025;-67
2022/06/30 09:31:39;;;;;;;10.88;2.42;;;27.20;99.90;;;;;;5057983;28;20376;-67
2022/06/30 09:34:21;;;;;;;7.88;2.05;;;27.30;99.90;;;;;;5057323;28;20032;-67
2022/06/30 09:36:48;;;;;;;6.50;2.63;;;27.50;99.90;;;;;;5057283;28;20435;-67
2022/06/30 09:39:15;;;;;;;7.43;2.78;;;27.70;99.90;;;;;;5057225;28;20052;-67
2022/06/30 09:41:43;;;;;;;8.70;2.85;;;27.80;99.90;;;;;;5057612;28;20013;-67
2022/06/30 09:44:19;;;;;;;6.18;2.13;;;27.70;99.90;;;;;;5057216;28;20100;-67
2022/06/30 09:47:00;;;;;;;7.20;2.55;;;27.80;99.90;;;;;;5057673;28;20021;-67
2022/06/30 09:49:31;;;;;;;10.55;1.90;;;27.80;99.90;;;;;;5056698;28;20389;-67
2022/06/30 09:51:57;;;;;;;10.32;2.40;;;27.80;99.90;;;;;;5057396;28;20352;-67
2022/06/30 09:54:23;;;;;;;9.70;1.92;;;27.80;99.90;;;;;;5056765;28;20036;-67
2022/06/30 09:57:06;;;;;;;5.57;2.13;;;27.80;99.90;;;;;;5056747;28;20517;-67
2022/06/30 09:59:33;;;;;;;4.60;1.60;;;28.00;99.90;;;;;;5056689;28;20392;-67
2022/06/30 10:01:59;;;;;;;6.40;2.15;;;28.20;99.90;;;;;;5057025;28;20028;-67
2022/06/30 10:04:26;;;;;;;5.50;2.45;;;28.30;99.90;;;;;;5056927;28;20086;-67
2022/06/30 10:06:55;;;;;;;8.70;2.40;;;28.30;99.90;;;;;;5057220;28;20024;-67
2022/06/30 10:09:20;;;;;;;6.10;2.30;;;28.10;99.90;;;;;;5056859;28;20036;-67
2022/06/30 10:11:47;;;;;;;7.50;2.33;;;28.30;99.90;;;;;;5057047;28;20025;-67
2022/06/30 10:14:15;;;;;;;6.70;2.42;;;28.30;99.90;;;;;;5057097;28;20075;-67
2022/06/30 10:16:42;;;;;;;4.35;1.83;;;28.30;99.90;;;;;;5056677;28;20017;-67
2022/06/30 10:19:12;;;;;;;7.25;2.30;;;28.50;99.90;;;;;;5056849;28;20021;-67
2022/06/30 10:21:39;;;;;;;4.28;1.98;;;28.70;99.90;;;;;;5056841;28;20021;-67
2022/06/30 10:24:06;;;;;;;7.60;2.72;;;28.70;99.90;;;;;;5056508;28;20036;-67
2022/06/30 10:29:17;;;;;;;11.35;1.73;;;28.80;99.90;;;;;;5056589;28;20032;-67
2022/06/30 10:31:51;;;;;;;6.32;2.13;;;29.10;99.90;;;;;;5056830;28;20084;-67
2022/06/30 10:34:22;;;;;;;8.20;1.88;;;29.20;99.90;;;;;;5056372;28;20469;-67
2022/06/30 10:37:10;;;;;;;4.03;1.90;;;29.40;99.90;;;;;;5058204;28;20033;-67
2022/06/30 10:40:02;;;;;;;9.15;2.10;;;29.00;99.90;;;;;;5059332;28;20025;-67
2022/06/30 10:42:46;;;;;;;7.80;2.50;;;28.50;99.90;;;;;;5057338;28;20021;-67
2022/06/30 10:45:30;;;;;;;7.93;2.30;;;28.50;99.90;;;;;;5056563;28;20107;-67
2022/06/30 10:48:01;;;;;;;5.40;2.35;;;28.40;99.90;;;;;;5056113;28;20496;-67
2022/06/30 10:50:35;;;;;;;6.15;2.15;;;28.50;99.90;;;;;;5056443;28;20035;-67
2022/06/30 10:53:07;;;;;;;8.23;2.35;;;28.80;99.90;;;;;;5056096;28;20025;-67
2022/06/30 10:55:51;;;;;;;6.97;1.65;;;29.20;99.90;;;;;;5055987;28;20029;-67
2022/06/30 10:58:16;;;;;;;5.45;1.77;;;29.60;99.90;;;;;;5055835;28;20044;-67
2022/06/30 11:00:43;;;;;;;4.65;1.75;;;29.90;99.90;;;;;;5055947;28;20025;-68
2022/06/30 11:03:09;;;;;;;7.20;2.10;;;30.10;99.90;;;;;;5055862;28;20083;-68
2022/06/30 11:05:50;;;;;;;5.43;2.20;;;30.20;99.90;;;;;;5038220;28;20029;-67
2022/06/30 11:08:50;;;;;;;5.05;2.10;;;30.50;99.90;;;;;;5056092;28;20485;-67
2022/06/30 11:11:25;;;;;;;8.38;2.20;;;30.50;99.90;;;;;;5055528;28;20025;-68
2022/06/30 11:14:03;;;;;;;3.85;1.63;;;30.50;99.90;;;;;;5037933;28;20021;-68
2022/06/30 11:16:35;;;;;;;7.65;2.17;;;30.50;99.90;;;;;;5055847;28;20112;-68
2022/06/30 11:19:01;;;;;;;4.43;1.77;;;30.50;99.90;;;;;;5055882;28;20383;-68
2022/06/30 11:21:31;;;;;;;8.55;2.38;;;30.30;99.90;;;;;;5055814;28;20056;-68
2022/06/30 11:24:02;;;;;;;3.65;1.88;;;30.30;99.90;;;;;;5055788;28;20024;-68
2022/06/30 11:29:16;;;;;;;5.40;1.92;;;30.50;99.90;;;;;;5055531;28;20020;-68
2022/06/30 11:31:42;;;;;;;10.23;1.98;;;30.40;99.90;;;;;;5037577;28;20025;-68
2022/06/30 11:34:17;;;;;;;5.25;1.98;;;30.30;99.90;;;;;;5054864;28;20036;-68
2022/06/30 11:36:44;;;;;;;4.68;1.95;;;29.80;99.90;;;;;;5055349;28;20021;-68
2022/06/30 11:39:18;;;;;;;5.97;1.80;;;29.60;99.90;;;;;;5054729;28;20101;-68
2022/06/30 11:41:57;;;;;;;4.78;1.77;;;29.20;99.90;;;;;;5055010;28;20025;-68
2022/06/30 11:44:26;;;;;;;9.82;2.22;;;28.70;99.90;;;;;;5036555;28;20026;-68
2022/06/30 11:47:00;;;;;;;3.95;2.03;;;28.60;99.90;;;;;;5054488;28;20029;-68
2022/06/30 11:49:38;;;;;;;4.38;1.83;;;29.20;99.90;;;;;;5054355;28;20029;-68
2022/06/30 11:52:20;;;;;;;5.22;2.00;;;29.60;99.90;;;;;;5054329;28;20082;-68
2022/06/30 11:54:59;;;;;;;5.57;1.60;;;30.00;99.90;;;;;;5054204;28;20108;-68
2022/06/30 11:57:31;;;;;;;5.30;2.03;;;30.10;99.90;;;;;;5054542;28;20045;-68
2022/06/30 12:00:03;;;;;;;5.68;2.00;;;30.30;99.90;;;;;;5054328;28;20033;-68
2022/06/30 12:02:32;;;;;;;11.60;2.10;;;30.70;99.90;;;;;;5054187;28;20021;-68
2022/06/30 12:04:59;;;;;;;7.95;2.08;;;31.20;99.90;;;;;;5051476;28;20029;-68
2022/06/30 12:07:27;;;;;;;8.82;1.65;;;31.40;99.90;;;;;;5054283;28;20021;-69
2022/06/30 12:09:54;;;;;;;4.68;1.33;;;31.60;99.90;;;;;;5054159;28;20036;-69
2022/06/30 12:12:27;;;;;;;6.22;1.55;;;31.70;99.90;;;;;;5054514;28;20021;-68
2022/06/30 12:14:55;;;;;;;7.53;1.33;;;31.90;99.90;;;;;;5054231;28;20547;-69
2022/06/30 12:17:20;;;;;;;11.10;1.85;;;32.00;99.90;;;;;;5054085;28;20025;-69
2022/06/30 12:19:47;;;;;;;10.48;2.35;;;32.20;99.90;;;;;;5054508;28;20048;-68
2022/06/30 12:22:13;;;;;;;3.42;1.45;;;32.30;99.90;;;;;;5053735;28;20155;-68
2022/06/30 12:24:40;;;;;;;7.07;1.95;;;32.00;99.90;;;;;;5053613;28;20064;-68
2022/06/30 12:27:06;;;;;;;2.97;1.33;;;32.20;99.90;;;;;;5053914;28;20389;-68
2022/06/30 12:29:32;;;;;;;5.30;1.50;;;32.70;99.90;;;;;;5053815;28;20163;-69
2022/06/30 12:32:10;;;;;;;2.97;1.10;;;32.80;99.90;;;;;;5054047;28;20064;-68
2022/06/30 12:34:57;;;;;;;3.35;1.30;;;33.20;99.90;;;;;;5053837;28;20077;-69
2022/06/30 12:37:31;;;;;;;3.78;1.27;;;33.10;99.90;;;;;;5053456;28;20079;-69
2022/06/30 12:39:59;;;;;;;3.78;1.48;;;33.20;99.90;;;;;;5054030;28;20474;-69
2022/06/30 12:42:26;;;;;;;3.88;1.40;;;33.30;99.90;;;;;;5053580;28;20040;-69
2022/06/30 12:44:52;;;;;;;6.88;1.77;;;33.70;99.90;;;;;;5053657;28;20505;-68
2022/06/30 12:47:18;;;;;;;3.58;1.63;;;33.60;99.90;;;;;;5036132;28;20473;-69
2022/06/30 12:49:44;;;;;;;2.63;1.17;;;33.80;99.90;;;;;;5053649;28;20044;-68
2022/06/30 12:52:20;;;;;;;2.88;1.13;;;33.80;99.90;;;;;;5053495;28;20028;-69
2022/06/30 12:54:53;;;;;;;2.30;1.10;;;34.10;99.90;;;;;;5054259;28;20025;-71
2022/06/30 12:57:20;;;;;;;4.32;1.30;;;34.20;99.90;;;;;;5055618;28;20481;-71
2022/06/30 12:59:50;;;;;;;4.97;1.45;;;34.30;99.90;;;;;;5055730;28;20041;-71